Skiros, Greece
Current Conditions -  °F | °C
As of 12:50 PM on Friday 31 Oct 2014 (Local Time) from LGSY Reporting Station
Broken Clouds Broken Clouds  
Wind Chill: 57°   Ceiling: 2000
Heat Index: 57°   Visibility: 6mi
Dew Point: 46°   Wind: 20mph
Humidity: 67%   Direction: 40°NE
Pressure: 30.09"   Gusts: NA
Location:  38.9°N, 24.56°E
Report Text: LGSY 310950Z 04017KT 9999 FEW012 BKN020 14/08 Q1019 RMK SCT080 WHT
Loading
Personal Weather Stations






























Interactive Weather Map
Tropical Storm Tracking
New forecast layout! Learn more

10-Day Weather Forecast

Advertisements
Track Severe Weather on mobile